Time;durP1;ratioP1;P1;durP2;ratioP2;P2;SDS_P1;SDS_P2;PMS_P1;PMS_P2;Temp;Humidity;BMP_temperature;BMP_pressure;BME280_temperature;BME280_humidity;BME280_pressure;Samples;Min_cycle;Max_cycle;Signal;HPM_P1;HPM_P2
2021/12/22 00:01:05;;;;;;;15.18;9.70;;;-1.30;99.90;;;;;;5013557;28;20125;-79
2021/12/22 00:03:30;;;;;;;16.38;10.40;;;-1.10;99.90;;;;;;4979570;28;20460;-79
2021/12/22 00:05:56;;;;;;;15.98;9.75;;;0.50;99.90;;;;;;4978604;28;20077;-79
2021/12/22 00:08:23;;;;;;;14.48;9.13;;;-1.30;99.90;;;;;;4995573;28;20030;-79
2021/12/22 00:10:49;;;;;;;17.83;9.32;;;-1.30;99.90;;;;;;4995371;28;20050;-80
2021/12/22 00:13:15;;;;;;;15.30;9.73;;;-1.20;99.90;;;;;;4979161;28;20136;-79
2021/12/22 00:15:41;;;;;;;17.00;9.13;;;-1.30;99.90;;;;;;4978903;28;20060;-79
2021/12/22 00:18:07;;;;;;;15.70;9.43;;;-0.90;99.90;;;;;;4995731;28;20413;-80
2021/12/22 00:20:33;;;;;;;14.55;9.45;;;-0.80;99.90;;;;;;4994665;28;20104;-80
2021/12/22 00:22:59;;;;;;;22.65;9.23;;;-0.60;99.90;;;;;;4979553;28;20050;-80
2021/12/22 00:25:26;;;;;;;14.77;9.02;;;-1.60;99.90;;;;;;4994921;28;20038;-80
2021/12/22 00:27:54;;;;;;;13.40;9.43;;;-1.40;99.90;;;;;;4978201;28;20575;-80
2021/12/22 00:30:19;;;;;;;14.32;8.27;;;-1.50;99.90;;;;;;4971602;28;20038;-80
2021/12/22 00:32:53;;;;;;;12.70;9.05;;;-1.50;99.90;;;;;;4995331;28;20511;-80
2021/12/22 00:35:23;;;;;;;15.20;9.63;;;-1.40;99.90;;;;;;4986235;28;20077;-80
2021/12/22 00:37:49;;;;;;;13.15;9.07;;;-1.60;99.90;;;;;;4979021;28;20034;-80
2021/12/22 00:40:15;;;;;;;13.13;9.38;;;-1.50;99.90;;;;;;4978898;28;20505;-80
2021/12/22 00:42:41;;;;;;;14.93;8.90;;;-1.70;99.90;;;;;;4978583;28;20074;-80
2021/12/22 00:45:07;;;;;;;14.68;9.80;;;-1.50;99.90;;;;;;4995341;28;20636;-80
2021/12/22 00:47:33;;;;;;;18.70;10.10;;;-1.40;99.90;;;;;;4977824;28;20470;-80
2021/12/22 00:50:00;;;;;;;20.02;9.98;;;0.20;99.90;;;;;;4995181;28;20401;-80
2021/12/22 00:52:26;;;;;;;13.57;9.30;;;0.50;99.90;;;;;;4979221;28;20121;-79
2021/12/22 00:54:52;;;;;;;18.60;9.70;;;-1.80;99.90;;;;;;4977364;28;20053;-80
2021/12/22 00:57:18;;;;;;;14.68;8.73;;;-2.10;99.90;;;;;;4978302;28;20041;-80
2021/12/22 00:59:46;;;;;;;15.13;9.52;;;-0.70;99.90;;;;;;4978724;28;20046;-80
2021/12/22 01:02:14;;;;;;;14.38;9.23;;;-1.60;99.90;;;;;;4978173;28;20041;-80
2021/12/22 01:04:40;;;;;;;18.80;9.10;;;-1.60;99.90;;;;;;4977828;28;20042;-80
2021/12/22 01:07:06;;;;;;;16.10;9.63;;;-1.70;99.90;;;;;;4994595;28;20125;-80
2021/12/22 01:09:33;;;;;;;13.60;8.73;;;-1.50;99.90;;;;;;4977405;28;20038;-80
2021/12/22 01:11:59;;;;;;;15.93;9.98;;;0.90;99.90;;;;;;4978582;28;20042;-80
2021/12/22 01:14:25;;;;;;;16.05;9.40;;;-0.70;99.90;;;;;;4994003;28;20054;-80
2021/12/22 01:16:54;;;;;;;16.23;9.05;;;-1.70;99.90;;;;;;4976978;28;20041;-80
2021/12/22 01:19:28;;;;;;;16.00;9.63;;;-0.30;99.90;;;;;;4994128;28;20045;-80
2021/12/22 01:22:03;;;;;;;16.38;9.57;;;-1.70;99.90;;;;;;4978531;28;20492;-80
2021/12/22 01:24:32;;;;;;;;;;;-1.60;99.90;;;;;;4971347;28;20041;-80
2021/12/22 01:27:04;;;;;;;14.43;9.68;;;-1.00;99.90;;;;;;5010827;28;20284;-80
2021/12/22 01:29:37;;;;;;;14.18;9.15;;;-0.80;99.90;;;;;;4977915;28;20497;-80
2021/12/22 01:32:03;;;;;;;16.70;9.55;;;-1.80;99.90;;;;;;4962010;28;20049;-80
2021/12/22 01:34:30;;;;;;;12.52;9.20;;;-1.60;99.90;;;;;;4977848;28;20052;-80
2021/12/22 01:36:58;;;;;;;20.80;9.10;;;-2.10;99.90;;;;;;4977668;28;20085;-80
2021/12/22 01:39:24;;;;;;;14.50;9.15;;;-1.70;99.90;;;;;;4994333;28;20116;-80
2021/12/22 01:41:50;;;;;;;13.70;9.55;;;-0.90;99.90;;;;;;4978188;28;20042;-80
2021/12/22 01:44:30;;;;;;;18.48;9.18;;;-1.80;99.90;;;;;;4977329;28;20053;-80
2021/12/22 01:49:49;;;;;;;15.40;8.55;;;-1.90;99.90;;;;;;5021473;28;20053;-80
2021/12/22 01:52:14;;;;;;;12.48;8.50;;;-1.90;99.90;;;;;;4977323;28;20048;-80
2021/12/22 01:55:13;;;;;;;15.95;9.50;;;-1.90;99.90;;;;;;4977153;28;20049;-80
2021/12/22 01:57:44;;;;;;;13.48;8.50;;;-1.90;99.90;;;;;;4971814;28;20501;-80
2021/12/22 02:00:11;;;;;;;15.18;8.80;;;-1.80;99.90;;;;;;4977987;28;20072;-80
2021/12/22 02:02:36;;;;;;;18.13;9.25;;;-1.90;99.90;;;;;;4993692;28;20046;-80
2021/12/22 02:05:03;;;;;;;15.63;9.38;;;-1.30;99.90;;;;;;4976595;28;20133;-80
2021/12/22 02:07:28;;;;;;;20.63;9.57;;;-1.90;99.90;;;;;;4993934;28;20057;-80
2021/12/22 02:12:45;;;;;;;16.80;8.82;;;-2.00;99.90;;;;;;4986759;28;20585;-80
2021/12/22 02:15:11;;;;;;;14.18;9.10;;;0.10;99.90;;;;;;4977261;28;20061;-80
2021/12/22 02:17:39;;;;;;;13.77;9.00;;;-2.20;99.90;;;;;;4977100;28;20046;-80
2021/12/22 02:20:06;;;;;;;14.40;9.80;;;-2.20;99.90;;;;;;4977647;28;20104;-79
2021/12/22 02:22:32;;;;;;;16.05;9.38;;;-2.00;99.90;;;;;;4993890;28;20038;-79
2021/12/22 02:25:03;;;;;;;15.45;8.70;;;-2.40;99.90;;;;;;4993499;28;20042;-80
2021/12/22 02:27:39;;;;;;;16.23;8.52;;;-2.70;99.90;;;;;;4986299;28;20045;-80
2021/12/22 02:30:13;;;;;;;11.73;8.50;;;-1.80;99.90;;;;;;4981765;28;20056;-81
2021/12/22 02:35:08;;;;;;;15.48;8.52;;;-2.40;99.90;;;;;;5029371;28;20336;-80
2021/12/22 02:37:42;;;;;;;15.45;9.15;;;-2.10;99.90;;;;;;4981196;28;20042;-80
2021/12/22 02:40:12;;;;;;;;;;;-2.20;99.90;;;;;;4981084;28;20053;-81
2021/12/22 02:42:38;;;;;;;14.88;8.27;;;-4.00;99.90;;;;;;4981336;28;20285;-80
2021/12/22 02:45:12;;;;;;;12.55;8.60;;;-2.30;99.90;;;;;;4981019;28;20045;-81
2021/12/22 02:47:38;;;;;;;13.60;7.82;;;-2.20;99.90;;;;;;4980301;28;20053;-81
2021/12/22 02:50:05;;;;;;;13.30;8.35;;;-2.80;99.90;;;;;;4981390;28;20444;-80
2021/12/22 02:52:39;;;;;;;16.15;8.38;;;-2.20;99.90;;;;;;4980527;28;20042;-79
2021/12/22 02:55:06;;;;;;;15.88;8.70;;;-1.00;99.90;;;;;;4965110;28;20053;-81
2021/12/22 02:57:44;;;;;;;11.63;8.65;;;-2.20;99.90;;;;;;4980454;28;20117;-80
2021/12/22 03:05:26;;;;;;;15.85;8.35;;;-1.50;99.90;;;;;;4996663;28;20048;-81
2021/12/22 03:07:52;;;;;;;14.73;8.60;;;-2.60;99.90;;;;;;4981070;28;20124;-81
2021/12/22 03:10:20;;;;;;;16.33;8.23;;;0.00;99.90;;;;;;4979993;28;20554;-81
2021/12/22 03:12:51;;;;;;;16.98;9.30;;;-1.80;99.90;;;;;;4980754;28;20453;-81
2021/12/22 03:15:17;;;;;;;17.27;8.73;;;-3.80;99.90;;;;;;4979563;28;20062;-80
2021/12/22 03:17:43;;;;;;;10.13;7.88;;;-3.90;99.90;;;;;;4980323;28;20079;-81
2021/12/22 03:20:12;;;;;;;12.50;8.25;;;-2.90;99.90;;;;;;4980697;28;20081;-81
2021/12/22 03:22:38;;;;;;;16.88;9.30;;;-2.40;99.90;;;;;;4979582;28;20072;-81
2021/12/22 03:25:13;;;;;;;13.18;8.52;;;-2.80;99.90;;;;;;4980169;28;20056;-81
2021/12/22 03:27:39;;;;;;;15.23;9.18;;;-2.40;99.90;;;;;;4979968;28;20410;-80
2021/12/22 03:30:06;;;;;;;15.32;9.27;;;-2.60;99.90;;;;;;4979265;28;20046;-81
2021/12/22 03:32:31;;;;;;;15.98;9.07;;;-3.40;99.90;;;;;;4979897;28;20069;-79
2021/12/22 03:34:57;;;;;;;14.45;8.82;;;-1.60;99.90;;;;;;4980057;28;20451;-80
2021/12/22 03:37:23;;;;;;;14.05;9.18;;;;;;;;;;4979284;28;20042;-80
2021/12/22 03:39:49;;;;;;;16.33;9.00;;;-2.40;99.90;;;;;;4995087;28;20046;-79
2021/12/22 03:42:15;;;;;;;11.98;8.68;;;-2.60;99.90;;;;;;4980138;28;20088;-78
2021/12/22 03:44:41;;;;;;;14.82;9.57;;;-2.30;99.90;;;;;;4978818;28;20049;-78
2021/12/22 03:47:08;;;;;;;14.35;8.52;;;-2.10;99.90;;;;;;4979690;28;20128;-80
2021/12/22 03:49:35;;;;;;;12.02;8.30;;;-2.90;99.90;;;;;;4995412;28;20049;-80
2021/12/22 03:52:01;;;;;;;13.20;8.98;;;-2.70;99.90;;;;;;4979368;28;20038;-78
2021/12/22 03:54:27;;;;;;;12.90;8.23;;;-1.00;99.90;;;;;;4971647;28;20441;-79
2021/12/22 03:56:53;;;;;;;14.48;10.07;;;-1.30;99.90;;;;;;4979287;28;20046;-79
2021/12/22 03:59:19;;;;;;;16.17;9.77;;;-2.60;99.90;;;;;;4978719;28;20042;-79
2021/12/22 04:01:46;;;;;;;14.80;9.80;;;-2.70;99.90;;;;;;4979058;28;20037;-80
2021/12/22 04:04:15;;;;;;;17.08;9.90;;;-2.50;99.90;;;;;;4980175;28;20053;-79
2021/12/22 04:06:43;;;;;;;12.20;9.45;;;-1.00;99.90;;;;;;4978577;28;20427;-79
2021/12/22 04:09:09;;;;;;;12.43;9.23;;;-2.70;99.90;;;;;;4979489;28;20088;-79
2021/12/22 04:11:35;;;;;;;18.20;9.93;;;-2.60;99.90;;;;;;4978371;28;20046;-79
2021/12/22 04:14:01;;;;;;;13.02;9.20;;;-2.70;99.90;;;;;;4979119;28;20129;-80
2021/12/22 04:16:26;;;;;;;14.48;9.48;;;-2.90;99.90;;;;;;4978831;28;20049;-79
2021/12/22 04:18:52;;;;;;;16.23;8.80;;;-2.50;99.90;;;;;;4994881;28;20038;-80
2021/12/22 04:21:18;;;;;;;16.02;9.57;;;-2.60;99.90;;;;;;4979254;28;20100;-80
2021/12/22 04:23:44;;;;;;;17.67;9.68;;;-1.90;99.90;;;;;;4995372;28;20133;-79
2021/12/22 04:26:12;;;;;;;17.35;10.25;;;-2.70;99.90;;;;;;4978342;28;20049;-80
2021/12/22 04:28:39;;;;;;;14.18;9.82;;;-1.00;99.90;;;;;;4978762;28;20049;-80
2021/12/22 04:31:05;;;;;;;17.98;9.95;;;-2.90;99.90;;;;;;4978928;28;20089;-80
2021/12/22 04:33:30;;;;;;;19.45;10.50;;;-2.70;99.90;;;;;;4994324;28;20042;-78
2021/12/22 04:35:56;;;;;;;17.23;10.82;;;-2.60;99.90;;;;;;4979122;28;20099;-79
2021/12/22 04:38:22;;;;;;;19.27;10.75;;;-0.80;99.90;;;;;;4979021;28;20041;-80
2021/12/22 04:40:48;;;;;;;20.02;11.02;;;-2.60;99.90;;;;;;4978116;28;20085;-80
2021/12/22 04:43:14;;;;;;;16.83;10.40;;;-3.00;99.90;;;;;;4995318;28;20046;-80
2021/12/22 04:45:40;;;;;;;20.08;11.50;;;-3.00;99.90;;;;;;4978583;28;20072;-80
2021/12/22 04:48:06;;;;;;;18.88;11.32;;;-2.00;99.90;;;;;;4994380;28;20386;-80
2021/12/22 04:50:32;;;;;;;18.33;10.32;;;-2.70;99.90;;;;;;4977498;28;20041;-78
2021/12/22 04:53:16;;;;;;;18.85;10.35;;;-3.00;99.90;;;;;;4978744;28;20041;-79
2021/12/22 04:55:41;;;;;;;19.52;10.40;;;-2.60;99.90;;;;;;5003659;28;20513;-79
2021/12/22 04:58:07;;;;;;;18.77;9.82;;;-2.90;99.90;;;;;;4978819;28;20041;-80
2021/12/22 05:00:35;;;;;;;15.13;10.55;;;-2.60;99.90;;;;;;4978172;28;20045;-80
2021/12/22 05:03:01;;;;;;;15.93;10.38;;;-1.70;99.90;;;;;;5012685;28;20057;-80
2021/12/22 05:05:27;;;;;;;17.17;10.48;;;-2.90;99.90;;;;;;4994420;28;20049;-79
2021/12/22 05:07:53;;;;;;;17.05;10.30;;;-0.50;99.90;;;;;;4978082;28;20506;-79
2021/12/22 05:10:20;;;;;;;18.02;11.48;;;-2.60;99.90;;;;;;4994483;28;20046;-79
2021/12/22 05:12:46;;;;;;;15.98;10.88;;;-2.50;99.90;;;;;;4994770;28;20493;-80
2021/12/22 05:15:12;;;;;;;17.50;10.70;;;-3.20;99.90;;;;;;4977274;28;20057;-80
2021/12/22 05:20:12;;;;;;;18.58;10.45;;;-0.40;99.90;;;;;;4995879;28;20120;-80
2021/12/22 05:22:39;;;;;;;19.08;10.77;;;-3.10;99.90;;;;;;4977441;28;20559;-79
2021/12/22 05:25:07;;;;;;;17.05;11.52;;;-2.90;99.90;;;;;;4977983;28;20084;-80
2021/12/22 05:27:33;;;;;;;18.10;11.70;;;-2.60;99.90;;;;;;4969703;28;20128;-80
2021/12/22 05:29:58;;;;;;;17.15;11.13;;;-2.90;99.90;;;;;;4977405;28;20165;-78
2021/12/22 05:32:30;;;;;;;21.05;11.38;;;-3.00;99.90;;;;;;4977990;28;20056;-80
2021/12/22 05:34:57;;;;;;;22.52;11.73;;;-2.20;99.90;;;;;;4977776;28;20505;-78
2021/12/22 05:37:23;;;;;;;19.08;11.10;;;-3.10;99.90;;;;;;4977129;28;20037;-78
2021/12/22 05:39:49;;;;;;;20.17;10.43;;;-3.30;99.90;;;;;;4993886;28;20100;-79
2021/12/22 05:42:15;;;;;;;24.15;11.80;;;-1.70;99.90;;;;;;4978370;28;20046;-79
2021/12/22 05:44:42;;;;;;;17.95;10.02;;;;;;;;;;4976942;28;20049;-79
2021/12/22 05:47:08;;;;;;;20.40;11.82;;;-2.70;99.90;;;;;;4978175;28;20050;-79
2021/12/22 05:49:34;;;;;;;16.38;10.48;;;-2.80;99.90;;;;;;4977802;28;20061;-79
2021/12/22 05:52:00;;;;;;;15.68;10.50;;;-2.80;99.90;;;;;;4993798;28;20180;-80
2021/12/22 05:54:26;;;;;;;22.33;11.75;;;-3.10;99.90;;;;;;4977484;28;20546;-78
2021/12/22 05:56:52;;;;;;;30.83;17.60;;;-2.80;99.90;;;;;;4976666;28;20052;-79
2021/12/22 05:59:17;;;;;;;39.47;23.15;;;-0.60;99.90;;;;;;4993341;28;20125;-80
2021/12/22 06:01:43;;;;;;;24.92;15.48;;;-3.20;99.90;;;;;;4993823;28;20045;-80
2021/12/22 06:04:09;;;;;;;20.13;11.65;;;-3.10;99.90;;;;;;4976687;28;20053;-81
2021/12/22 06:06:34;;;;;;;16.85;10.93;;;-3.10;99.90;;;;;;4993801;28;20038;-81
2021/12/22 06:09:00;;;;;;;17.35;10.25;;;-2.80;99.90;;;;;;4978117;28;20432;-81
2021/12/22 06:11:26;;;;;;;19.90;10.52;;;-2.80;99.90;;;;;;4976794;28;20042;-80
2021/12/22 06:13:51;;;;;;;16.55;10.60;;;-3.20;99.90;;;;;;4977442;28;20038;-80
2021/12/22 06:16:17;;;;;;;21.45;10.63;;;-3.80;99.90;;;;;;4977000;28;20424;-81
2021/12/22 06:18:45;;;;;;;16.27;10.73;;;-3.40;99.90;;;;;;4976922;28;20038;-80
2021/12/22 06:21:13;;;;;;;17.15;9.98;;;-2.70;99.90;;;;;;4994022;28;20049;-79
2021/12/22 06:23:39;;;;;;;41.58;24.65;;;-2.20;99.90;;;;;;4976912;28;20125;-80
2021/12/22 06:26:05;;;;;;;19.25;12.00;;;-2.20;99.90;;;;;;4977056;28;20123;-80
2021/12/22 06:28:31;;;;;;;21.05;11.30;;;;;;;;;;4976990;28;20507;-80
2021/12/22 06:30:57;;;;;;;18.40;12.00;;;-2.80;99.90;;;;;;4977401;28;20050;-81
2021/12/22 06:33:22;;;;;;;17.20;10.45;;;-2.10;99.90;;;;;;4976463;28;20132;-81
2021/12/22 06:35:48;;;;;;;16.30;11.18;;;-3.00;99.90;;;;;;4976900;28;20124;-80
2021/12/22 06:38:16;;;;;;;21.67;12.70;;;-3.50;99.90;;;;;;4977699;28;20449;-81
2021/12/22 06:40:43;;;;;;;17.45;10.80;;;;;;;;;;4976681;28;20120;-81
2021/12/22 06:43:09;;;;;;;15.73;10.32;;;-2.80;99.90;;;;;;4977737;28;20061;-81
2021/12/22 06:45:35;;;;;;;21.40;11.50;;;-3.00;99.90;;;;;;4976340;28;20056;-80
2021/12/22 06:48:02;;;;;;;35.28;20.15;;;-3.00;99.90;;;;;;4976912;28;20041;-81
2021/12/22 06:50:27;;;;;;;42.80;20.77;;;-2.60;99.90;;;;;;4977200;28;20042;-80
2021/12/22 06:52:53;;;;;;;22.10;12.75;;;-2.40;99.90;;;;;;4977100;28;20520;-79
2021/12/22 06:55:19;;;;;;;20.05;10.85;;;-2.80;99.90;;;;;;4976107;28;20095;-80
2021/12/22 06:57:45;;;;;;;20.98;11.52;;;-3.70;99.90;;;;;;4977369;28;20038;-81
2021/12/22 07:00:12;;;;;;;18.90;10.77;;;-2.90;99.90;;;;;;4976886;28;20188;-81
2021/12/22 07:02:39;;;;;;;24.35;11.57;;;-2.90;99.90;;;;;;4969242;28;20050;-80
2021/12/22 07:05:08;;;;;;;19.42;11.15;;;-3.00;99.90;;;;;;4977148;28;20046;-81
2021/12/22 07:07:33;;;;;;;67.25;34.33;;;-4.90;99.90;;;;;;4976232;28;20165;-82
2021/12/22 07:10:00;;;;;;;62.58;30.70;;;-1.30;99.90;;;;;;4977220;28;20123;-80
2021/12/22 07:12:26;;;;;;;42.03;21.75;;;-3.70;99.90;;;;;;4976959;28;20042;-80
2021/12/22 07:14:51;;;;;;;21.15;12.68;;;-2.90;99.90;;;;;;4978168;28;20054;-81
2021/12/22 07:17:17;;;;;;;18.77;11.25;;;-3.90;99.90;;;;;;4980194;28;20572;-79
2021/12/22 07:19:43;;;;;;;18.23;11.60;;;-3.50;99.90;;;;;;4996746;28;20046;-80
2021/12/22 07:22:08;;;;;;;19.50;10.80;;;-2.90;99.90;;;;;;4981319;28;20049;-81
2021/12/22 07:24:35;;;;;;;18.08;11.15;;;-2.90;99.90;;;;;;4982050;28;20042;-81
2021/12/22 07:27:00;;;;;;;17.42;11.50;;;-3.30;99.90;;;;;;4983163;28;20042;-82
2021/12/22 07:29:26;;;;;;;19.30;10.95;;;-2.50;99.90;;;;;;4980217;28;20096;-81
2021/12/22 07:31:52;;;;;;;19.77;11.43;;;;;;;;;;4980042;28;20034;-79
2021/12/22 07:34:53;;;;;;;24.48;13.15;;;-2.80;99.90;;;;;;4979885;28;20088;-79
2021/12/22 07:37:22;;;;;;;20.55;11.48;;;-1.60;99.90;;;;;;4978609;28;20053;-79
2021/12/22 07:39:48;;;;;;;16.23;10.70;;;-3.00;99.90;;;;;;4979814;28;20048;-80
2021/12/22 07:42:14;;;;;;;20.50;10.73;;;-2.20;99.90;;;;;;4980077;28;20042;-80
2021/12/22 07:44:40;;;;;;;21.15;10.88;;;-3.00;99.90;;;;;;4978588;28;20033;-81
2021/12/22 07:47:05;;;;;;;22.50;11.10;;;-3.50;99.90;;;;;;4980408;28;20088;-81
2021/12/22 07:49:31;;;;;;;17.85;11.13;;;-2.40;99.90;;;;;;4978998;28;20029;-81
2021/12/22 07:51:57;;;;;;;19.98;10.80;;;;;;;;;;4980296;28;20038;-82
2021/12/22 07:54:23;;;;;;;18.10;11.15;;;-2.90;99.90;;;;;;4979774;28;20084;-80
2021/12/22 07:56:48;;;;;;;19.40;12.05;;;-3.30;99.90;;;;;;4978728;28;20065;-80
2021/12/22 07:59:14;;;;;;;19.17;10.75;;;-2.90;99.90;;;;;;4980464;28;20034;-80
2021/12/22 08:01:40;;;;;;;16.65;10.40;;;;;;;;;;4979602;28;20544;-80
2021/12/22 08:04:05;;;;;;;16.58;10.73;;;-2.80;99.90;;;;;;4979337;28;20042;-81
2021/12/22 08:06:31;;;;;;;17.55;11.02;;;-3.40;99.90;;;;;;4979009;28;20057;-79
2021/12/22 08:08:57;;;;;;;19.23;11.32;;;-2.90;99.90;;;;;;4996187;28;20038;-81
2021/12/22 08:11:22;;;;;;;22.50;10.80;;;-2.90;99.90;;;;;;4978902;28;20402;-82
2021/12/22 08:13:48;;;;;;;20.10;10.45;;;-3.10;99.90;;;;;;4962936;28;20041;-79
2021/12/22 08:16:14;;;;;;;18.30;11.05;;;-3.20;99.90;;;;;;4976267;28;20063;-81
2021/12/22 08:18:40;;;;;;;24.15;11.88;;;-1.20;99.90;;;;;;4975561;28;20038;-80
2021/12/22 08:21:05;;;;;;;19.00;10.50;;;-3.10;99.90;;;;;;4976520;28;20537;-81
2021/12/22 08:23:31;;;;;;;23.60;10.35;;;-2.90;99.90;;;;;;4975803;28;20089;-79
2021/12/22 08:25:57;;;;;;;18.08;10.15;;;-3.20;99.90;;;;;;4975184;28;20042;-81
2021/12/22 08:28:22;;;;;;;20.08;10.90;;;-3.20;99.90;;;;;;4975941;28;20081;-81
2021/12/22 08:30:48;;;;;;;18.38;10.52;;;-3.20;99.90;;;;;;4992127;28;20045;-79
2021/12/22 08:33:26;;;;;;;18.17;9.48;;;-4.20;99.90;;;;;;4991734;28;20042;-78
2021/12/22 08:38:57;;;;;;;19.05;11.32;;;-3.20;99.90;;;;;;4990919;28;20054;-78
2021/12/22 08:41:35;;;;;;;17.80;10.27;;;-2.80;99.90;;;;;;4975873;28;20065;-79
2021/12/22 08:44:06;;;;;;;14.35;9.40;;;-2.70;99.90;;;;;;4975921;28;20034;-78
2021/12/22 08:46:32;;;;;;;17.92;10.50;;;-2.50;99.90;;;;;;4990925;28;20046;-78
2021/12/22 08:49:00;;;;;;;18.55;10.43;;;-2.50;99.90;;;;;;4975795;28;20445;-78
2021/12/22 08:51:25;;;;;;;19.40;12.02;;;-3.10;99.90;;;;;;4975605;28;20060;-78
2021/12/22 08:53:52;;;;;;;15.20;9.77;;;-3.30;99.90;;;;;;4990628;28;20498;-80
2021/12/22 08:56:18;;;;;;;18.10;11.13;;;-3.10;99.90;;;;;;4975361;28;20550;-78
2021/12/22 08:58:44;;;;;;;20.20;11.45;;;-3.00;99.90;;;;;;4975574;28;20038;-78
2021/12/22 09:01:10;;;;;;;24.35;11.68;;;-2.60;99.90;;;;;;4974937;28;20049;-78
2021/12/22 09:03:35;;;;;;;22.88;11.10;;;-3.00;99.90;;;;;;4975222;28;20052;-79
2021/12/22 09:06:02;;;;;;;23.48;10.88;;;-3.00;99.90;;;;;;4991294;28;20042;-80
2021/12/22 09:08:27;;;;;;;20.63;11.10;;;-2.90;99.90;;;;;;4974512;28;20038;-78
2021/12/22 09:10:53;;;;;;;20.30;11.55;;;-2.40;99.90;;;;;;4991748;28;20499;-81
2021/12/22 09:13:20;;;;;;;22.40;11.40;;;-1.50;99.90;;;;;;4991613;28;20158;-80
2021/12/22 09:15:47;;;;;;;20.80;11.20;;;-2.40;99.90;;;;;;4992023;28;20101;-78
2021/12/22 09:18:13;;;;;;;21.05;11.30;;;-1.20;99.90;;;;;;4998532;28;20141;-77
2021/12/22 09:20:39;;;;;;;22.20;11.48;;;-1.20;99.90;;;;;;4987394;28;20561;-76
2021/12/22 09:23:05;;;;;;;18.85;11.85;;;-2.40;99.90;;;;;;4984898;28;20125;-77
2021/12/22 09:25:33;;;;;;;20.08;11.38;;;-1.40;99.90;;;;;;4984638;28;20034;-77
2021/12/22 09:27:59;;;;;;;20.05;10.82;;;-0.30;99.90;;;;;;4974959;28;20558;-77
2021/12/22 09:30:25;;;;;;;22.20;11.07;;;-2.30;99.90;;;;;;4981591;28;20084;-80
2021/12/22 09:32:51;;;;;;;23.88;11.35;;;-1.90;99.90;;;;;;4967337;28;20106;-78
2021/12/22 09:35:16;;;;;;;23.40;11.73;;;-2.30;99.90;;;;;;4974702;28;20133;-79
2021/12/22 09:37:42;;;;;;;20.88;11.18;;;-2.20;99.90;;;;;;4974234;28;20035;-78
2021/12/22 09:40:09;;;;;;;24.17;10.88;;;-1.50;99.90;;;;;;4975039;28;20046;-79
2021/12/22 09:42:34;;;;;;;23.35;11.35;;;-2.10;99.90;;;;;;4973719;28;20089;-80
2021/12/22 09:45:02;;;;;;;20.67;10.68;;;-1.60;99.90;;;;;;4974674;28;20042;-79
2021/12/22 09:47:32;;;;;;;20.92;11.50;;;-2.40;99.90;;;;;;4974645;28;20034;-79
2021/12/22 09:50:07;;;;;;;19.38;11.52;;;-2.10;99.90;;;;;;4990366;28;20046;-80
2021/12/22 09:52:33;;;;;;;;;;;-2.10;99.90;;;;;;4974400;28;20442;-78
2021/12/22 09:55:00;;;;;;;21.30;11.07;;;-2.00;99.90;;;;;;4974351;28;19932;-78
2021/12/22 09:57:28;;;;;;;18.88;10.73;;;-1.90;99.90;;;;;;4974115;28;20042;-79
2021/12/22 09:59:55;;;;;;;19.67;10.93;;;-1.20;99.90;;;;;;4990638;28;20375;-80
2021/12/22 10:02:25;;;;;;;21.83;11.27;;;0.00;99.90;;;;;;4974577;28;20045;-79
2021/12/22 10:04:51;;;;;;;21.83;12.30;;;-2.40;99.90;;;;;;4989293;28;20638;-79
2021/12/22 10:07:23;;;;;;;16.45;10.32;;;-1.90;99.90;;;;;;4974498;28;20073;-77
2021/12/22 10:09:49;;;;;;;24.35;11.98;;;-1.40;99.90;;;;;;4974219;28;20498;-78
2021/12/22 10:12:22;;;;;;;21.23;12.25;;;-2.10;99.90;;;;;;4974168;28;20133;-79
2021/12/22 10:14:50;;;;;;;17.90;9.95;;;-2.00;99.90;;;;;;4973715;28;20061;-79
2021/12/22 10:17:30;;;;;;;17.65;11.25;;;-2.20;99.90;;;;;;4973792;28;20034;-77
2021/12/22 10:20:02;;;;;;;21.13;11.13;;;-1.70;99.90;;;;;;4974436;28;20038;-78
2021/12/22 10:22:33;;;;;;;17.42;10.90;;;-1.60;99.90;;;;;;4974330;28;20086;-78
2021/12/22 10:25:11;;;;;;;28.55;12.25;;;-1.70;99.90;;;;;;4965862;28;20518;-79
2021/12/22 10:27:38;;;;;;;23.83;11.13;;;-1.80;99.90;;;;;;4974086;28;20073;-79
2021/12/22 10:30:23;;;;;;;18.58;11.45;;;-1.30;99.90;;;;;;4974776;28;20486;-79
2021/12/22 10:32:49;;;;;;;20.13;11.57;;;-1.50;99.90;;;;;;4973372;28;20082;-78
2021/12/22 10:35:15;;;;;;;17.42;10.18;;;-1.60;99.90;;;;;;4990161;28;20132;-78
2021/12/22 10:37:44;;;;;;;19.83;10.65;;;-1.50;99.90;;;;;;4990505;28;20044;-79
2021/12/22 10:40:33;;;;;;;24.85;11.23;;;-1.10;99.90;;;;;;4973652;28;20513;-79
2021/12/22 10:43:00;;;;;;;23.10;11.80;;;-1.40;99.90;;;;;;4980135;28;20085;-76
2021/12/22 10:45:29;;;;;;;18.85;10.68;;;-1.40;99.90;;;;;;4993594;28;20034;-75
2021/12/22 10:50:42;;;;;;;18.95;11.20;;;-1.10;99.90;;;;;;4993975;28;20061;-76
2021/12/22 10:53:11;;;;;;;19.17;10.02;;;-1.20;99.90;;;;;;4986924;28;20049;-76
2021/12/22 10:55:41;;;;;;;21.15;11.23;;;-1.30;99.90;;;;;;4998159;28;20096;-79
2021/12/22 10:58:27;;;;;;;20.10;10.60;;;-1.60;99.90;;;;;;4994100;28;20078;-83
2021/12/22 11:01:07;;;;;;;16.02;10.68;;;-1.40;99.90;;;;;;4978244;28;20088;-83
2021/12/22 11:03:48;;;;;;;16.70;10.55;;;-1.10;99.90;;;;;;4986516;28;20125;-78
2021/12/22 11:06:23;;;;;;;18.77;10.57;;;-1.30;99.90;;;;;;4982943;28;20528;-78
2021/12/22 11:08:55;;;;;;;16.70;10.73;;;-1.30;99.90;;;;;;4979340;28;20054;-78
2021/12/22 11:11:20;;;;;;;17.98;10.50;;;-1.20;99.90;;;;;;5019799;28;20050;-80
2021/12/22 11:14:10;;;;;;;19.05;10.30;;;-1.10;99.90;;;;;;4992826;28;20372;-77
2021/12/22 11:16:52;;;;;;;17.13;10.45;;;-1.10;99.90;;;;;;4977292;28;20046;-79
2021/12/22 11:19:18;;;;;;;17.08;11.15;;;-1.00;99.90;;;;;;4992223;28;20049;-79
2021/12/22 11:22:02;;;;;;;17.20;9.75;;;-0.90;99.90;;;;;;4988545;28;20049;-80
2021/12/22 11:24:30;;;;;;;18.98;9.75;;;-0.90;99.90;;;;;;4972912;28;20042;-79
2021/12/22 11:26:57;;;;;;;18.65;10.50;;;-0.40;99.90;;;;;;4291344;28;10000783;-77
2021/12/22 11:29:24;;;;;;;19.95;11.13;;;-1.10;99.90;;;;;;4983209;28;20042;-78
2021/12/22 11:31:51;;;;;;;16.85;9.77;;;-1.00;99.90;;;;;;4983681;28;20073;-78
2021/12/22 11:34:19;;;;;;;18.45;10.38;;;-0.90;99.90;;;;;;5001168;28;20092;-78
2021/12/22 11:36:46;;;;;;;18.45;10.90;;;-0.90;99.90;;;;;;5001154;28;20070;-79
2021/12/22 11:39:12;;;;;;;22.73;10.68;;;;;;;;;;4974580;28;20041;-79
2021/12/22 11:41:43;;;;;;;19.45;11.25;;;0.20;99.90;;;;;;4973988;28;20050;-79
2021/12/22 11:44:13;;;;;;;18.88;11.93;;;-1.20;99.90;;;;;;4974548;28;20129;-79
2021/12/22 11:46:40;;;;;;;16.85;10.48;;;-0.40;99.90;;;;;;4980261;28;20070;-79
2021/12/22 11:49:06;;;;;;;18.58;11.35;;;-0.80;99.90;;;;;;4982049;28;20038;-79
2021/12/22 11:51:34;;;;;;;16.80;11.18;;;-0.10;99.90;;;;;;4974315;28;20081;-79
2021/12/22 11:54:09;;;;;;;17.90;10.35;;;-0.30;99.90;;;;;;4986693;28;20049;-79
2021/12/22 11:56:39;;;;;;;15.70;10.02;;;-0.80;99.90;;;;;;4973631;28;20061;-79
2021/12/22 11:59:06;;;;;;;16.38;10.20;;;-0.70;99.90;;;;;;5006683;28;20046;-79
2021/12/22 12:01:32;;;;;;;18.85;11.57;;;-1.10;99.90;;;;;;4992136;28;20101;-79
2021/12/22 12:04:13;;;;;;;24.10;13.20;;;-0.90;99.90;;;;;;4973900;28;20048;-79
2021/12/22 12:06:50;;;;;;;16.33;11.30;;;-0.80;99.90;;;;;;4974139;28;20038;-80
2021/12/22 12:09:21;;;;;;;21.33;11.32;;;-0.70;99.90;;;;;;4981996;28;20085;-79
2021/12/22 12:11:54;;;;;;;18.38;10.85;;;-0.80;99.90;;;;;;4989947;28;20057;-79
2021/12/22 12:14:43;;;;;;;16.45;10.05;;;-0.70;99.90;;;;;;4973230;28;20058;-79
2021/12/22 12:23:41;;;;;;;15.68;10.18;;;-0.50;99.90;;;;;;4990856;28;20047;-78
2021/12/22 12:26:37;;;;;;;14.55;9.23;;;-0.70;99.90;;;;;;4949291;28;20074;-78
2021/12/22 12:29:03;;;;;;;18.60;9.60;;;-0.60;99.90;;;;;;4988214;28;20105;-75
2021/12/22 12:31:39;;;;;;;15.32;10.23;;;-0.60;99.90;;;;;;4975148;28;20046;-78
2021/12/22 12:34:22;;;;;;;17.08;10.82;;;0.60;99.90;;;;;;4975593;28;20137;-74
2021/12/22 12:36:48;;;;;;;17.35;10.27;;;-0.70;99.90;;;;;;4974960;28;20074;-82
2021/12/22 12:39:13;;;;;;;16.52;9.90;;;-0.10;99.90;;;;;;4983838;28;20116;-80
2021/12/22 12:41:59;;;;;;;18.63;10.98;;;-0.60;99.90;;;;;;4975493;28;20184;-81
2021/12/22 12:44:29;;;;;;;17.20;10.48;;;-0.70;99.90;;;;;;4975679;28;20125;-80
2021/12/22 12:46:54;;;;;;;12.68;9.02;;;-0.90;99.90;;;;;;4974326;28;20116;-76
2021/12/22 12:49:20;;;;;;;15.35;9.15;;;-0.60;99.90;;;;;;4975824;28;20079;-75
2021/12/22 12:51:47;;;;;;;16.42;9.43;;;-1.00;99.90;;;;;;4975150;28;20046;-80
2021/12/22 12:54:15;;;;;;;17.63;9.85;;;-1.00;99.90;;;;;;4975088;28;20052;-79
2021/12/22 12:56:42;;;;;;;15.63;10.02;;;-0.50;99.90;;;;;;4975675;28;20046;-76
2021/12/22 12:59:11;;;;;;;14.63;9.65;;;-0.80;99.90;;;;;;4991401;28;20039;-77
2021/12/22 13:01:52;;;;;;;18.33;12.27;;;-0.90;99.90;;;;;;4975251;28;20081;-78
2021/12/22 13:04:28;;;;;;;14.20;10.15;;;-0.50;99.90;;;;;;4966964;28;20125;-77
2021/12/22 13:07:07;;;;;;;18.13;10.15;;;-0.40;99.90;;;;;;4974447;28;20038;-80